Time;durP1;ratioP1;P1;durP2;ratioP2;P2;SDS_P1;SDS_P2;PMS_P1;PMS_P2;Temp;Humidity;BMP_temperature;BMP_pressure;BME280_temperature;BME280_humidity;BME280_pressure;Samples;Min_cycle;Max_cycle;Signal;HPM_P1;HPM_P2
2021/08/09 00:00:37;;;;;;;2.40;2.20;;;;;;;;;;4989746;28;25042;-50
2021/08/09 00:03:02;;;;;;;2.30;2.10;;;;;;;;;;4989728;28;24421;-47
2021/08/09 00:05:27;;;;;;;2.80;2.30;;;;;;;;;;4989696;28;24440;-50
2021/08/09 00:07:52;;;;;;;2.30;2.10;;;;;;;;;;4989442;28;24505;-49
2021/08/09 00:10:18;;;;;;;2.00;1.90;;;;;;;;;;4989931;28;24998;-50
2021/08/09 00:12:43;;;;;;;2.23;2.03;;;;;;;;;;4993688;28;24448;-49
2021/08/09 00:15:08;;;;;;;2.30;2.10;;;;;;;;;;4990816;28;24788;-49
2021/08/09 00:17:34;;;;;;;2.50;2.30;;;;;;;;;;4989220;28;24428;-49
2021/08/09 00:19:59;;;;;;;2.50;2.00;;;;;;;;;;4990073;28;24974;-50
2021/08/09 00:22:24;;;;;;;2.40;2.20;;;;;;;;;;4988717;28;24959;-50
2021/08/09 00:24:49;;;;;;;2.30;2.00;;;;;;;;;;4989768;28;25028;-50
2021/08/09 00:27:14;;;;;;;2.17;2.08;;;;;;;;;;4988798;28;24488;-49
2021/08/09 00:29:39;;;;;;;2.10;1.90;;;;;;;;;;4989317;28;24420;-50
2021/08/09 00:32:05;;;;;;;2.00;1.90;;;;;;;;;;4989032;28;24428;-50
2021/08/09 00:34:30;;;;;;;2.10;2.00;;;;;;;;;;4988767;28;24420;-49
2021/08/09 00:36:56;;;;;;;2.20;2.00;;;;;;;;;;4989971;28;24444;-50
2021/08/09 00:39:21;;;;;;;2.27;2.13;;;;;;;;;;4990530;28;24417;-49
2021/08/09 00:41:46;;;;;;;2.20;2.00;;;;;;;;;;4989129;28;24516;-49
2021/08/09 00:44:12;;;;;;;2.27;2.10;;;;;;;;;;4988872;28;24456;-49
2021/08/09 00:46:37;;;;;;;1.98;1.80;;;;;;;;;;4989658;28;24504;-48
2021/08/09 00:49:02;;;;;;;1.90;1.80;;;;;;;;;;4989320;28;24575;-49
2021/08/09 00:51:27;;;;;;;2.00;1.90;;;;;;;;;;4988654;28;24445;-49
2021/08/09 00:53:53;;;;;;;1.90;1.80;;;;;;;;;;4988290;28;24982;-50
2021/08/09 00:56:18;;;;;;;3.20;2.20;;;;;;;;;;4971428;28;24420;-49
2021/08/09 00:58:43;;;;;;;1.90;1.80;;;;;;;;;;4988685;28;24436;-51
2021/08/09 01:01:08;;;;;;;1.80;1.70;;;;;;;;;;4988778;28;24512;-50
2021/08/09 01:03:33;;;;;;;1.50;1.40;;;;;;;;;;4988315;28;25329;-49
2021/08/09 01:05:58;;;;;;;1.90;1.60;;;;;;;;;;4988879;28;24467;-50
2021/08/09 01:08:29;;;;;;;1.60;1.50;;;;;;;;;;4988371;28;24955;-49
2021/08/09 01:11:00;;;;;;;2.00;1.60;;;;;;;;;;4988636;28;24994;-50
2021/08/09 01:13:30;;;;;;;1.58;1.48;;;;;;;;;;4988646;28;24524;-50
2021/08/09 01:16:03;;;;;;;1.60;1.50;;;;;;;;;;4988801;28;24428;-49
2021/08/09 01:18:30;;;;;;;2.00;1.70;;;;;;;;;;4987927;28;24416;-49
2021/08/09 01:20:57;;;;;;;1.50;1.40;;;;;;;;;;4988304;28;24428;-49
2021/08/09 01:23:35;;;;;;;1.80;1.70;;;;;;;;;;4987758;28;24421;-49
2021/08/09 01:26:03;;;;;;;1.50;1.40;;;;;;;;;;4987659;28;24780;-50
2021/08/09 01:28:29;;;;;;;1.60;1.50;;;;;;;;;;4988383;28;24427;-50
2021/08/09 01:30:55;;;;;;;1.50;1.40;;;;;;;;;;4988469;28;24488;-49
2021/08/09 01:33:22;;;;;;;2.70;1.90;;;;;;;;;;4988401;28;24454;-49
2021/08/09 01:35:47;;;;;;;1.65;1.38;;;;;;;;;;4988514;28;24496;-49
2021/08/09 01:38:14;;;;;;;1.60;1.50;;;;;;;;;;4987969;28;24509;-49
2021/08/09 01:40:40;;;;;;;1.65;1.55;;;;;;;;;;4988286;28;24884;-49
2021/08/09 01:43:05;;;;;;;2.00;1.70;;;;;;;;;;4988473;28;25014;-49
2021/08/09 01:45:31;;;;;;;1.50;1.40;;;;;;;;;;4987712;28;24425;-49
2021/08/09 01:47:57;;;;;;;1.65;1.55;;;;;;;;;;4988411;28;24413;-50
2021/08/09 01:50:23;;;;;;;1.90;1.80;;;;;;;;;;4987759;28;24436;-48
2021/08/09 01:52:48;;;;;;;2.17;1.80;;;;;;;;;;4988076;28;24448;-49
2021/08/09 01:55:15;;;;;;;2.30;2.10;;;;;;;;;;4988270;28;24849;-49
2021/08/09 01:57:40;;;;;;;1.92;1.83;;;;;;;;;;4987370;28;24413;-49
2021/08/09 02:00:10;;;;;;;2.40;1.70;;;;;;;;;;4985633;28;24508;-48
2021/08/09 02:02:35;;;;;;;2.35;1.95;;;;;;;;;;4986544;28;24415;-49
2021/08/09 02:05:13;;;;;;;1.98;1.70;;;;;;;;;;4987911;28;24479;-49
2021/08/09 02:07:40;;;;;;;1.98;1.77;;;;;;;;;;4986539;28;24493;-49
2021/08/09 02:10:07;;;;;;;2.03;1.92;;;;;;;;;;4987472;28;24413;-49
2021/08/09 02:12:36;;;;;;;1.90;1.80;;;;;;;;;;4987046;28;24475;-49
2021/08/09 02:15:02;;;;;;;1.95;1.85;;;;;;;;;;4987773;28;24417;-49
2021/08/09 02:17:33;;;;;;;2.00;1.90;;;;;;;;;;4987999;28;24490;-49
2021/08/09 02:20:11;;;;;;;2.20;2.10;;;;;;;;;;4988192;28;24598;-50
2021/08/09 02:22:44;;;;;;;2.30;2.20;;;;;;;;;;4973544;28;24459;-49
2021/08/09 02:25:09;;;;;;;3.10;1.92;;;;;;;;;;4987554;28;24410;-49
2021/08/09 02:27:42;;;;;;;2.30;2.10;;;;;;;;;;4987256;28;24424;-50
2021/08/09 02:30:08;;;;;;;2.20;2.00;;;;;;;;;;4986355;28;24475;-49
2021/08/09 02:32:35;;;;;;;2.20;1.90;;;;;;;;;;4991310;28;24436;-49
2021/08/09 02:35:01;;;;;;;2.15;1.90;;;;;;;;;;4991989;28;24405;-50
2021/08/09 02:37:27;;;;;;;2.20;2.10;;;;;;;;;;4990764;28;24416;-50
2021/08/09 02:39:52;;;;;;;2.00;1.90;;;;;;;;;;4991655;28;24449;-49
2021/08/09 02:42:17;;;;;;;2.30;1.90;;;;;;;;;;4987341;28;24849;-50
2021/08/09 02:44:42;;;;;;;2.20;2.00;;;;;;;;;;4991413;28;24417;-50
2021/08/09 02:47:10;;;;;;;2.03;1.83;;;;;;;;;;4991475;28;25160;-50
2021/08/09 02:49:36;;;;;;;1.90;1.80;;;;;;;;;;4990671;28;24437;-49
2021/08/09 02:52:02;;;;;;;2.00;1.80;;;;;;;;;;4991230;28;25009;-49
2021/08/09 02:54:28;;;;;;;2.47;1.90;;;;;;;;;;4990999;28;24955;-50
2021/08/09 02:56:54;;;;;;;2.33;2.13;;;;;;;;;;4991256;28;24416;-50
2021/08/09 02:59:19;;;;;;;2.30;2.10;;;;;;;;;;4990669;28;24503;-49
2021/08/09 03:01:45;;;;;;;3.30;2.30;;;;;;;;;;4990660;28;24502;-50
2021/08/09 03:04:13;;;;;;;2.30;2.10;;;;;;;;;;4991277;28;24425;-50
2021/08/09 03:06:38;;;;;;;2.70;2.08;;;;;;;;;;4990588;28;24424;-49
2021/08/09 03:09:05;;;;;;;2.30;2.10;;;;;;;;;;4990983;28;24455;-49
2021/08/09 03:11:30;;;;;;;2.95;2.65;;;;;;;;;;4985906;28;24441;-49
2021/08/09 03:13:55;;;;;;;2.50;2.00;;;;;;;;;;4988532;28;24516;-49
2021/08/09 03:16:21;;;;;;;2.10;1.90;;;;;;;;;;4989103;28;24421;-50
2021/08/09 03:18:46;;;;;;;2.00;1.90;;;;;;;;;;4988831;28;24432;-48
2021/08/09 03:21:12;;;;;;;2.15;2.05;;;;;;;;;;4989139;28;24475;-48
2021/08/09 03:23:37;;;;;;;2.40;2.20;;;;;;;;;;4988328;28;25015;-49
2021/08/09 03:26:02;;;;;;;2.30;2.10;;;;;;;;;;4989757;28;24424;-49
2021/08/09 03:28:27;;;;;;;2.08;1.90;;;;;;;;;;4990580;28;25023;-49
2021/08/09 03:30:52;;;;;;;2.40;2.20;;;;;;;;;;4989203;28;24437;-48
2021/08/09 03:33:18;;;;;;;2.20;2.00;;;;;;;;;;4990989;28;24393;-49
2021/08/09 03:35:43;;;;;;;2.50;1.90;;;;;;;;;;4986692;28;24772;-49
2021/08/09 03:38:08;;;;;;;1.90;1.80;;;;;;;;;;4988654;28;24409;-49
2021/08/09 03:40:33;;;;;;;2.03;1.87;;;;;;;;;;4988792;28;24428;-48
2021/08/09 03:42:58;;;;;;;2.30;2.10;;;;;;;;;;4988428;28;24417;-49
2021/08/09 03:45:23;;;;;;;1.85;1.75;;;;;;;;;;4989184;28;24413;-48
2021/08/09 03:47:49;;;;;;;4.03;2.40;;;;;;;;;;4988935;28;24476;-49
2021/08/09 03:50:14;;;;;;;3.50;2.40;;;;;;;;;;4989181;28;24575;-49
2021/08/09 03:52:49;;;;;;;2.30;2.10;;;;;;;;;;4989205;28;24496;-49
2021/08/09 03:55:14;;;;;;;4.33;2.13;;;;;;;;;;4993803;28;25078;-49
2021/08/09 03:57:39;;;;;;;2.40;2.20;;;;;;;;;;4989588;28;24508;-49
2021/08/09 04:00:05;;;;;;;2.10;2.00;;;;;;;;;;4990078;28;24437;-49
2021/08/09 04:02:31;;;;;;;4.30;2.30;;;;;;;;;;4988898;28;24486;-49
2021/08/09 04:04:58;;;;;;;2.50;2.30;;;;;;;;;;4988593;28;24424;-48
2021/08/09 04:07:23;;;;;;;2.30;2.10;;;;;;;;;;4990343;28;24393;-49
2021/08/09 04:09:48;;;;;;;2.10;2.00;;;;;;;;;;4989753;28;24419;-49
2021/08/09 04:12:13;;;;;;;2.90;2.22;;;;;;;;;;4989201;28;25027;-49
2021/08/09 04:14:38;;;;;;;2.10;2.00;;;;;;;;;;4989286;28;24903;-48
2021/08/09 04:17:03;;;;;;;2.05;1.95;;;;;;;;;;4990232;28;24394;-49
2021/08/09 04:19:28;;;;;;;2.47;2.20;;;;;;;;;;4989637;28;24503;-49
2021/08/09 04:21:54;;;;;;;1.90;1.80;;;;;;;;;;4990002;28;24385;-49
2021/08/09 04:24:19;;;;;;;2.17;2.00;;;;;;;;;;4988949;28;24511;-50
2021/08/09 04:26:44;;;;;;;2.30;2.10;;;;;;;;;;4989400;28;24433;-49
2021/08/09 04:29:09;;;;;;;2.23;2.03;;;;;;;;;;4988828;28;25133;-49
2021/08/09 04:31:39;;;;;;;1.80;1.70;;;;;;;;;;4989290;28;24483;-49
2021/08/09 04:34:04;;;;;;;2.20;2.10;;;;;;;;;;4988320;28;24521;-49
2021/08/09 04:36:29;;;;;;;2.25;2.05;;;;;;;;;;4989003;28;24858;-49
2021/08/09 04:38:54;;;;;;;2.33;2.00;;;;;;;;;;4989089;28;24471;-47
2021/08/09 04:41:20;;;;;;;1.50;1.40;;;;;;;;;;4988792;28;24467;-49
2021/08/09 04:43:45;;;;;;;1.92;1.83;;;;;;;;;;4989056;28;24440;-49
2021/08/09 04:46:10;;;;;;;2.00;1.70;;;;;;;;;;4988706;28;24912;-49
2021/08/09 04:48:36;;;;;;;1.87;1.50;;;;;;;;;;4987772;28;24472;-50
2021/08/09 04:51:01;;;;;;;2.30;1.83;;;;;;;;;;4988749;28;24447;-49
2021/08/09 04:53:27;;;;;;;1.80;1.70;;;;;;;;;;4987257;28;24511;-50
2021/08/09 04:55:52;;;;;;;1.83;1.63;;;;;;;;;;4988609;28;24419;-50
2021/08/09 04:58:17;;;;;;;1.70;1.60;;;;;;;;;;4988997;28;24504;-50
2021/08/09 05:00:42;;;;;;;2.37;2.17;;;;;;;;;;4987814;28;24468;-50
2021/08/09 05:03:07;;;;;;;2.20;2.00;;;;;;;;;;4988372;28;24451;-49
2021/08/09 05:05:33;;;;;;;3.57;1.90;;;;;;;;;;4987239;28;25061;-50
2021/08/09 05:07:58;;;;;;;1.90;1.60;;;;;;;;;;4988814;28;24508;-50
2021/08/09 05:10:24;;;;;;;1.83;1.57;;;;;;;;;;4987723;28;24433;-51
2021/08/09 05:12:49;;;;;;;2.03;1.92;;;;;;;;;;4988140;28;24416;-51
2021/08/09 05:15:14;;;;;;;1.90;1.80;;;;;;;;;;4988966;28;24455;-50
2021/08/09 05:17:39;;;;;;;2.30;1.63;;;;;;;;;;4986769;28;24416;-50
2021/08/09 05:20:08;;;;;;;2.30;2.00;;;;;;;;;;4987716;28;24409;-50
2021/08/09 05:22:33;;;;;;;2.08;1.70;;;;;;;;;;4985571;28;24426;-51
2021/08/09 05:24:58;;;;;;;3.00;1.70;;;;;;;;;;4986757;28;24421;-50
2021/08/09 05:27:24;;;;;;;1.60;1.50;;;;;;;;;;4978400;28;24421;-51
2021/08/09 05:29:49;;;;;;;1.80;1.70;;;;;;;;;;4987690;28;24769;-50
2021/08/09 05:32:14;;;;;;;1.70;1.60;;;;;;;;;;4987456;28;24437;-52
2021/08/09 05:34:41;;;;;;;1.83;1.70;;;;;;;;;;4987772;28;24466;-52
2021/08/09 05:37:07;;;;;;;1.40;1.30;;;;;;;;;;4984747;28;24509;-51
2021/08/09 05:39:33;;;;;;;3.40;1.80;;;;;;;;;;4985070;28;24894;-52
2021/08/09 05:41:58;;;;;;;1.70;1.30;;;;;;;;;;4984303;28;24478;-51
2021/08/09 05:44:24;;;;;;;2.80;1.60;;;;;;;;;;4985413;28;24483;-50
2021/08/09 05:46:50;;;;;;;2.20;1.40;;;;;;;;;;4984204;28;24459;-52
2021/08/09 05:49:15;;;;;;;2.55;1.70;;;;;;;;;;4973058;28;24998;-50
2021/08/09 05:51:40;;;;;;;2.03;1.50;;;;;;;;;;4983078;28;24452;-50
2021/08/09 05:54:09;;;;;;;1.90;1.57;;;;;;;;;;4978361;28;24438;-50
2021/08/09 05:56:34;;;;;;;3.20;1.90;;;;;;;;;;4979533;28;24483;-50
2021/08/09 05:58:59;;;;;;;2.00;1.40;;;;;;;;;;4983053;28;24417;-50
2021/08/09 06:01:25;;;;;;;2.20;1.50;;;;;;;;;;4983907;28;24431;-50
2021/08/09 06:03:50;;;;;;;4.00;2.03;;;;;;;;;;4983412;28;24874;-51
2021/08/09 06:06:16;;;;;;;2.20;1.50;;;;;;;;;;4990193;28;24436;-50
2021/08/09 06:08:42;;;;;;;2.60;1.60;;;;;;;;;;4990150;28;24505;-50
2021/08/09 06:11:07;;;;;;;1.77;1.40;;;;;;;;;;4990512;28;24448;-50
2021/08/09 06:13:33;;;;;;;3.03;1.90;;;;;;;;;;4991054;28;24409;-50
2021/08/09 06:15:58;;;;;;;2.13;1.80;;;;;;;;;;4990916;28;24425;-50
2021/08/09 06:18:23;;;;;;;3.05;1.60;;;;;;;;;;4991194;28;25246;-51
2021/08/09 06:20:48;;;;;;;1.90;1.50;;;;;;;;;;4993321;28;24416;-51
2021/08/09 06:23:13;;;;;;;3.10;1.90;;;;;;;;;;4989412;28;24432;-51
2021/08/09 06:25:38;;;;;;;1.70;1.60;;;;;;;;;;4991700;28;24408;-52
2021/08/09 06:28:03;;;;;;;1.70;1.60;;;;;;;;;;4990871;28;24452;-51
2021/08/09 06:30:29;;;;;;;2.07;1.90;;;;;;;;;;4991102;28;24428;-53
2021/08/09 06:32:54;;;;;;;3.30;1.60;;;;;;;;;;4990829;28;24490;-52
2021/08/09 06:35:19;;;;;;;2.50;2.00;;;;;;;;;;4985797;28;24788;-51
2021/08/09 06:37:44;;;;;;;1.50;1.40;;;;;;;;;;4990958;28;25436;-52
2021/08/09 06:40:10;;;;;;;1.55;1.45;;;;;;;;;;4990736;28;24444;-52
2021/08/09 06:42:35;;;;;;;2.00;1.52;;;;;;;;;;4990051;28;24989;-52
2021/08/09 06:45:00;;;;;;;1.50;1.40;;;;;;;;;;4992972;28;24494;-52
2021/08/09 06:47:26;;;;;;;1.80;1.53;;;;;;;;;;4993898;28;24401;-52
2021/08/09 06:49:52;;;;;;;3.47;1.65;;;;;;;;;;4975959;28;25010;-52
2021/08/09 06:52:19;;;;;;;1.70;1.60;;;;;;;;;;4990546;28;25150;-51
2021/08/09 06:54:44;;;;;;;1.85;1.75;;;;;;;;;;4987194;28;24459;-49
2021/08/09 06:57:10;;;;;;;1.80;1.70;;;;;;;;;;4992527;28;24453;-49
2021/08/09 06:59:35;;;;;;;2.40;1.80;;;;;;;;;;4992862;28;24508;-49
2021/08/09 07:02:00;;;;;;;2.07;1.87;;;;;;;;;;4993071;28;25239;-50
2021/08/09 07:04:25;;;;;;;2.92;1.60;;;;;;;;;;4993293;28;24424;-49
2021/08/09 07:06:51;;;;;;;2.10;1.80;;;;;;;;;;4989976;28;24409;-50
2021/08/09 07:09:16;;;;;;;2.27;2.07;;;;;;;;;;4991775;28;24499;-50
2021/08/09 07:11:42;;;;;;;2.00;1.60;;;;;;;;;;4990326;28;24522;-51
2021/08/09 07:14:07;;;;;;;2.30;2.10;;;;;;;;;;4993371;28;24424;-49
2021/08/09 07:16:32;;;;;;;1.80;1.70;;;;;;;;;;4991379;28;24397;-50
2021/08/09 07:18:58;;;;;;;3.17;1.70;;;;;;;;;;4990279;28;24947;-50
2021/08/09 07:21:24;;;;;;;2.50;1.80;;;;;;;;;;4990444;28;24500;-51
2021/08/09 07:23:49;;;;;;;1.80;1.70;;;;;;;;;;4990097;28;24405;-50
2021/08/09 07:26:14;;;;;;;1.63;1.50;;;;;;;;;;4990082;28;24998;-49
2021/08/09 07:28:39;;;;;;;2.90;1.85;;;;;;;;;;4987353;28;24431;-50
2021/08/09 07:31:05;;;;;;;2.37;1.90;;;;;;;;;;4990079;28;24733;-49
2021/08/09 07:33:30;;;;;;;2.37;1.90;;;;;;;;;;4987254;28;24879;-49
2021/08/09 07:35:55;;;;;;;2.00;1.80;;;;;;;;;;4989385;28;24420;-48
2021/08/09 07:38:20;;;;;;;2.50;1.90;;;;;;;;;;4990195;28;24955;-49
2021/08/09 07:40:46;;;;;;;2.03;1.80;;;;;;;;;;4990000;28;24429;-49
2021/08/09 07:43:11;;;;;;;2.30;1.70;;;;;;;;;;4989347;28;24417;-48
2021/08/09 07:45:36;;;;;;;2.93;1.90;;;;;;;;;;4990304;28;24456;-49
2021/08/09 07:48:03;;;;;;;2.23;1.70;;;;;;;;;;4989924;28;24409;-48
2021/08/09 07:50:28;;;;;;;2.72;1.80;;;;;;;;;;4990066;28;24986;-49
2021/08/09 07:52:53;;;;;;;2.57;1.70;;;;;;;;;;4986430;28;24456;-49
2021/08/09 07:55:18;;;;;;;2.03;1.70;;;;;;;;;;4986325;28;24848;-49
2021/08/09 07:57:44;;;;;;;2.13;1.90;;;;;;;;;;4989422;28;24421;-48
2021/08/09 08:00:09;;;;;;;2.55;1.40;;;;;;;;;;4989259;28;24454;-48
2021/08/09 08:02:35;;;;;;;2.80;1.50;;;;;;;;;;4989913;28;24409;-48
2021/08/09 08:05:00;;;;;;;1.97;1.50;;;;;;;;;;4987945;28;25001;-49
2021/08/09 08:07:25;;;;;;;1.80;1.70;;;;;;;;;;4989545;28;24427;-48
2021/08/09 08:09:50;;;;;;;1.60;1.40;;;;;;;;;;4989755;28;24493;-50
2021/08/09 08:12:16;;;;;;;1.60;1.50;;;;;;;;;;4989437;28;24983;-48
2021/08/09 08:14:41;;;;;;;1.20;1.20;;;;;;;;;;4984692;28;25033;-48
2021/08/09 08:17:06;;;;;;;2.60;1.40;;;;;;;;;;4985768;28;24437;-49
2021/08/09 08:19:31;;;;;;;2.33;1.40;;;;;;;;;;4989630;28;24409;-48
2021/08/09 08:21:56;;;;;;;1.70;1.53;;;;;;;;;;4971285;28;24429;-49
2021/08/09 08:24:22;;;;;;;2.70;1.70;;;;;;;;;;4989374;28;24425;-49
2021/08/09 08:26:47;;;;;;;1.30;1.20;;;;;;;;;;4988968;28;25119;-49
2021/08/09 08:29:12;;;;;;;2.13;1.47;;;;;;;;;;4988427;28;25037;-49
2021/08/09 08:31:37;;;;;;;2.13;1.70;;;;;;;;;;4982251;28;24440;-50
2021/08/09 08:34:03;;;;;;;2.00;1.50;;;;;;;;;;4987022;28;25093;-51
2021/08/09 08:36:28;;;;;;;1.70;1.60;;;;;;;;;;4988999;28;24417;-50
2021/08/09 08:38:53;;;;;;;3.85;1.98;;;;;;;;;;4988997;28;24509;-50
2021/08/09 08:41:18;;;;;;;1.75;1.65;;;;;;;;;;4988802;28;24483;-50
2021/08/09 08:43:44;;;;;;;1.53;1.43;;;;;;;;;;4989177;28;24404;-50
2021/08/09 08:46:09;;;;;;;4.87;1.70;;;;;;;;;;4988252;28;24417;-49
2021/08/09 08:48:35;;;;;;;2.10;1.60;;;;;;;;;;4976994;28;24410;-49
2021/08/09 08:51:01;;;;;;;2.73;1.60;;;;;;;;;;4978686;28;24643;-49
2021/08/09 08:53:27;;;;;;;2.05;1.60;;;;;;;;;;4988017;28;24524;-49
2021/08/09 08:55:53;;;;;;;1.60;1.50;;;;;;;;;;4987701;28;24405;-48
2021/08/09 08:58:18;;;;;;;1.50;1.40;;;;;;;;;;4988520;28;24768;-49
2021/08/09 09:00:46;;;;;;;2.17;1.50;;;;;;;;;;4988348;28;24500;-49
2021/08/09 09:03:22;;;;;;;1.40;1.30;;;;;;;;;;4988952;28;25019;-49
2021/08/09 09:06:05;;;;;;;1.73;1.20;;;;;;;;;;4988497;28;24594;-48
2021/08/09 09:08:37;;;;;;;1.70;1.50;;;;;;;;;;5001878;28;24989;-49
2021/08/09 09:11:03;;;;;;;1.90;1.40;;;;;;;;;;4988298;28;25303;-50
2021/08/09 09:13:28;;;;;;;2.20;1.30;;;;;;;;;;4988248;28;24452;-49
2021/08/09 09:15:59;;;;;;;1.70;1.30;;;;;;;;;;4988689;28;24750;-49
2021/08/09 09:18:27;;;;;;;2.00;1.40;;;;;;;;;;4988125;28;24824;-51
2021/08/09 09:20:52;;;;;;;1.30;1.20;;;;;;;;;;4982738;28;24760;-51
2021/08/09 09:23:18;;;;;;;1.67;1.37;;;;;;;;;;4987177;28;24508;-52
2021/08/09 09:25:44;;;;;;;1.65;1.20;;;;;;;;;;4988000;28;24396;-52
2021/08/09 09:28:23;;;;;;;1.30;1.00;;;;;;;;;;4987612;28;24405;-51
2021/08/09 09:30:48;;;;;;;1.20;1.10;;;;;;;;;;4988093;28;24487;-51
2021/08/09 09:33:13;;;;;;;1.33;1.20;;;;;;;;;;4987746;28;24591;-50
2021/08/09 09:35:38;;;;;;;1.20;1.10;;;;;;;;;;4988199;28;24532;-51
2021/08/09 09:38:03;;;;;;;1.23;1.13;;;;;;;;;;4987071;28;24956;-51
2021/08/09 09:40:37;;;;;;;1.60;1.50;;;;;;;;;;4987735;28;24764;-51
2021/08/09 09:43:12;;;;;;;1.30;1.20;;;;;;;;;;4987587;28;24500;-55
2021/08/09 09:45:48;;;;;;;1.65;1.30;;;;;;;;;;4987484;28;25007;-52
2021/08/09 09:48:14;;;;;;;2.20;1.30;;;;;;;;;;4987311;28;24425;-52
2021/08/09 09:50:43;;;;;;;1.83;1.20;;;;;;;;;;4987866;28;24424;-52
2021/08/09 09:53:17;;;;;;;2.10;1.30;;;;;;;;;;4987358;28;24851;-53
2021/08/09 09:55:43;;;;;;;1.30;1.07;;;;;;;;;;4987666;28;24396;-52
2021/08/09 09:58:08;;;;;;;1.40;1.30;;;;;;;;;;4969823;28;24780;-52
2021/08/09 10:00:34;;;;;;;1.60;1.20;;;;;;;;;;4987806;28;24393;-52
2021/08/09 10:02:59;;;;;;;1.20;1.10;;;;;;;;;;4987129;28;24508;-52
2021/08/09 10:05:24;;;;;;;1.23;1.20;;;;;;;;;;4987714;28;24453;-52
2021/08/09 10:07:52;;;;;;;1.50;1.10;;;;;;;;;;4987344;28;24421;-52
2021/08/09 10:10:18;;;;;;;2.90;1.73;;;;;;;;;;4986767;28;24516;-52
2021/08/09 10:12:46;;;;;;;1.38;1.20;;;;;;;;;;4987339;28;24408;-52
2021/08/09 10:15:11;;;;;;;1.50;1.20;;;;;;;;;;4967587;28;24394;-52
2021/08/09 10:17:37;;;;;;;1.70;1.30;;;;;;;;;;4968246;28;24436;-52
2021/08/09 10:20:04;;;;;;;1.30;1.20;;;;;;;;;;4967836;28;24381;-53
2021/08/09 10:22:30;;;;;;;1.42;1.17;;;;;;;;;;4968318;28;24453;-52
2021/08/09 10:24:55;;;;;;;1.67;1.30;;;;;;;;;;4980734;28;24515;-52
2021/08/09 10:27:39;;;;;;;1.33;1.17;;;;;;;;;;4987309;28;24401;-51
2021/08/09 10:30:04;;;;;;;1.20;1.10;;;;;;;;;;4987096;28;24954;-51
2021/08/09 10:32:41;;;;;;;1.40;1.27;;;;;;;;;;4985515;28;24432;-51
2021/08/09 10:35:26;;;;;;;1.60;1.30;;;;;;;;;;4986888;28;24544;-51
2021/08/09 10:38:11;;;;;;;1.48;1.38;;;;;;;;;;4987189;28;24975;-52
2021/08/09 10:40:36;;;;;;;1.83;1.20;;;;;;;;;;4987435;28;24424;-51
2021/08/09 10:43:01;;;;;;;1.70;1.30;;;;;;;;;;4987375;28;24440;-52
2021/08/09 10:45:45;;;;;;;1.30;1.10;;;;;;;;;;4987004;28;24409;-52
2021/08/09 10:48:12;;;;;;;1.50;1.30;;;;;;;;;;4987353;28;24392;-52
2021/08/09 10:50:43;;;;;;;2.05;1.30;;;;;;;;;;4987038;28;24453;-52
2021/08/09 10:53:28;;;;;;;1.83;1.30;;;;;;;;;;4990192;28;24508;-51
2021/08/09 10:55:55;;;;;;;1.30;1.20;;;;;;;;;;4990129;28;24958;-52
2021/08/09 10:58:39;;;;;;;2.30;1.52;;;;;;;;;;4990507;28;24428;-51
2021/08/09 11:01:04;;;;;;;1.50;1.40;;;;;;;;;;4990649;28;25022;-52
2021/08/09 11:03:29;;;;;;;1.50;1.30;;;;;;;;;;4991322;28;24654;-52
2021/08/09 11:05:55;;;;;;;1.40;1.30;;;;;;;;;;4990383;28;24926;-52
2021/08/09 11:08:20;;;;;;;1.30;1.20;;;;;;;;;;4990678;28;24405;-52
2021/08/09 11:10:54;;;;;;;1.67;1.58;;;;;;;;;;4990874;28;24423;-51
2021/08/09 11:13:19;;;;;;;2.33;1.30;;;;;;;;;;4990460;28;24456;-53
2021/08/09 11:15:53;;;;;;;1.87;1.40;;;;;;;;;;4990448;28;24385;-52
2021/08/09 11:18:18;;;;;;;1.30;1.20;;;;;;;;;;4990151;28;24970;-51
2021/08/09 11:20:43;;;;;;;1.43;1.33;;;;;;;;;;4990537;28;24401;-52
2021/08/09 11:23:10;;;;;;;1.40;1.20;;;;;;;;;;4990239;28;24950;-52
2021/08/09 11:25:44;;;;;;;1.40;1.30;;;;;;;;;;4990448;28;24401;-52
2021/08/09 11:28:12;;;;;;;1.40;1.30;;;;;;;;;;4990297;28;24448;-51
2021/08/09 11:30:38;;;;;;;1.40;1.20;;;;;;;;;;4990010;28;24977;-52
2021/08/09 11:33:04;;;;;;;1.50;1.30;;;;;;;;;;4989919;28;24985;-52
2021/08/09 11:35:29;;;;;;;1.60;1.50;;;;;;;;;;4972750;28;24429;-51
2021/08/09 11:37:55;;;;;;;1.43;1.30;;;;;;;;;;4990416;28;24701;-52
2021/08/09 11:40:33;;;;;;;1.63;1.43;;;;;;;;;;4989991;28;24468;-52
2021/08/09 11:42:58;;;;;;;1.20;1.10;;;;;;;;;;4989018;28;24413;-52
2021/08/09 11:45:24;;;;;;;1.40;1.30;;;;;;;;;;4987680;28;24427;-52
2021/08/09 11:47:49;;;;;;;1.60;1.50;;;;;;;;;;4990253;28;24460;-52
2021/08/09 11:50:14;;;;;;;1.88;1.25;;;;;;;;;;4989915;28;24401;-51
2021/08/09 11:52:39;;;;;;;1.20;1.10;;;;;;;;;;4990049;28;24449;-51
2021/08/09 11:55:05;;;;;;;2.30;1.57;;;;;;;;;;4987316;28;24532;-51
2021/08/09 11:57:40;;;;;;;2.70;1.60;;;;;;;;;;4987344;28;24472;-51
2021/08/09 12:00:05;;;;;;;1.70;1.60;;;;;;;;;;4988803;28;25042;-51
2021/08/09 12:02:30;;;;;;;1.52;1.40;;;;;;;;;;4987961;28;24524;-52
2021/08/09 12:04:55;;;;;;;1.58;1.40;;;;;;;;;;4988143;28;24429;-52
2021/08/09 12:07:21;;;;;;;1.70;1.30;;;;;;;;;;4989469;28;24445;-52
2021/08/09 12:09:47;;;;;;;1.50;1.40;;;;;;;;;;4989636;28;24942;-53
2021/08/09 12:12:16;;;;;;;1.50;1.40;;;;;;;;;;4989852;28;25075;-52
2021/08/09 12:14:42;;;;;;;1.77;1.60;;;;;;;;;;4989137;28;24423;-53
2021/08/09 12:17:12;;;;;;;1.58;1.48;;;;;;;;;;4986452;28;25019;-52
2021/08/09 12:19:44;;;;;;;1.60;1.40;;;;;;;;;;4987394;28;24428;-53
2021/08/09 12:22:13;;;;;;;1.40;1.30;;;;;;;;;;4988855;28;24497;-52
2021/08/09 12:24:42;;;;;;;1.10;1.00;;;;;;;;;;4989208;28;24476;-53
2021/08/09 12:27:16;;;;;;;1.35;1.25;;;;;;;;;;4989340;28;24500;-52
2021/08/09 12:30:01;;;;;;;1.40;1.30;;;;;;;;;;4987291;28;24431;-52
2021/08/09 12:32:28;;;;;;;1.42;1.33;;;;;;;;;;4988712;28;24412;-52
2021/08/09 12:34:53;;;;;;;1.50;1.40;;;;;;;;;;4989196;28;24420;-51
2021/08/09 12:37:18;;;;;;;1.45;1.35;;;;;;;;;;4989041;28;24389;-52
2021/08/09 12:39:43;;;;;;;1.40;1.30;;;;;;;;;;4989028;28;24410;-53
2021/08/09 12:42:12;;;;;;;1.57;1.33;;;;;;;;;;4988905;28;24420;-53
2021/08/09 12:44:37;;;;;;;1.38;1.10;;;;;;;;;;4988831;28;24468;-53
2021/08/09 12:47:02;;;;;;;0.90;0.90;;;;;;;;;;4987116;28;24433;-52
2021/08/09 12:49:29;;;;;;;1.30;1.20;;;;;;;;;;4988472;28;24475;-52
2021/08/09 12:51:54;;;;;;;1.20;1.10;;;;;;;;;;4989131;28;24421;-51
2021/08/09 12:54:19;;;;;;;1.33;1.23;;;;;;;;;;4988512;28;24428;-52
2021/08/09 12:56:44;;;;;;;1.40;1.20;;;;;;;;;;4989378;28;24421;-51
2021/08/09 12:59:09;;;;;;;1.70;1.20;;;;;;;;;;4988990;28;24939;-52
2021/08/09 13:01:35;;;;;;;1.70;1.30;;;;;;;;;;4989222;28;24975;-52
2021/08/09 13:04:00;;;;;;;1.40;1.30;;;;;;;;;;4989153;28;24389;-52
2021/08/09 13:06:25;;;;;;;1.67;1.20;;;;;;;;;;4988477;28;24409;-51
2021/08/09 13:08:50;;;;;;;1.48;1.30;;;;;;;;;;4989042;28;24396;-52
2021/08/09 13:11:15;;;;;;;1.23;1.10;;;;;;;;;;4988793;28;24417;-52
2021/08/09 13:13:40;;;;;;;1.67;1.40;;;;;;;;;;4988460;28;24405;-51
2021/08/09 13:16:06;;;;;;;1.20;1.10;;;;;;;;;;4985093;28;24452;-51
2021/08/09 13:18:31;;;;;;;1.30;1.20;;;;;;;;;;4988434;28;25064;-52
2021/08/09 13:20:56;;;;;;;1.50;1.40;;;;;;;;;;4988480;28;24919;-51
2021/08/09 13:23:21;;;;;;;1.30;1.20;;;;;;;;;;4988807;28;24409;-52
2021/08/09 13:25:47;;;;;;;1.30;1.20;;;;;;;;;;4987627;28;24512;-52
2021/08/09 13:28:12;;;;;;;1.87;1.40;;;;;;;;;;4987706;28;24429;-51
2021/08/09 13:30:38;;;;;;;2.50;1.30;;;;;;;;;;4986019;28;24416;-52
2021/08/09 13:33:03;;;;;;;2.00;1.52;;;;;;;;;;4987767;28;25025;-51
2021/08/09 13:35:28;;;;;;;1.40;1.30;;;;;;;;;;4987959;28;24499;-52
2021/08/09 13:37:53;;;;;;;2.33;1.60;;;;;;;;;;4988490;28;24417;-52
2021/08/09 13:40:19;;;;;;;1.50;1.40;;;;;;;;;;4987653;28;24448;-51
2021/08/09 13:42:44;;;;;;;1.60;1.30;;;;;;;;;;4984414;28;24409;-51
2021/08/09 13:45:09;;;;;;;1.42;1.30;;;;;;;;;;4987931;28;24767;-51
2021/08/09 13:47:34;;;;;;;1.50;1.40;;;;;;;;;;4987864;28;25059;-51
2021/08/09 13:49:59;;;;;;;1.40;1.30;;;;;;;;;;4987345;28;24406;-51
2021/08/09 13:52:25;;;;;;;1.40;1.20;;;;;;;;;;4987169;28;24444;-52
2021/08/09 13:54:50;;;;;;;1.30;1.20;;;;;;;;;;4987790;28;24414;-51
2021/08/09 13:57:17;;;;;;;1.40;1.30;;;;;;;;;;4969763;28;24416;-52
2021/08/09 13:59:42;;;;;;;1.33;1.20;;;;;;;;;;4988083;28;25002;-51
2021/08/09 14:02:07;;;;;;;1.40;1.30;;;;;;;;;;4986792;28;24424;-52
2021/08/09 14:04:32;;;;;;;1.50;1.27;;;;;;;;;;4987699;28;24625;-52
2021/08/09 14:06:57;;;;;;;1.30;1.20;;;;;;;;;;4987720;28;24389;-52
2021/08/09 14:09:23;;;;;;;1.70;1.30;;;;;;;;;;4987877;28;24377;-53
2021/08/09 14:11:48;;;;;;;1.60;1.50;;;;;;;;;;4987539;28;24455;-52
2021/08/09 14:14:13;;;;;;;2.05;1.67;;;;;;;;;;4988140;28;24420;-52
2021/08/09 14:16:38;;;;;;;1.50;1.40;;;;;;;;;;4987610;28;24440;-52
2021/08/09 14:19:03;;;;;;;1.50;1.40;;;;;;;;;;4987988;28;24504;-52
2021/08/09 14:21:29;;;;;;;1.33;1.23;;;;;;;;;;4987630;28;24421;-53
2021/08/09 14:23:54;;;;;;;1.43;1.20;;;;;;;;;;4987870;28;24954;-52
2021/08/09 14:26:19;;;;;;;1.40;1.30;;;;;;;;;;4990106;28;24744;-51
2021/08/09 14:28:44;;;;;;;1.40;1.30;;;;;;;;;;4991371;28;24447;-51
2021/08/09 14:31:09;;;;;;;1.47;1.37;;;;;;;;;;4991260;28;24421;-50
2021/08/09 14:33:34;;;;;;;1.30;1.20;;;;;;;;;;4991245;28;24420;-51
2021/08/09 14:36:00;;;;;;;1.50;1.40;;;;;;;;;;4991304;28;24756;-50
2021/08/09 14:38:25;;;;;;;1.70;1.60;;;;;;;;;;4990951;28;24927;-51